sensor_id;sensor_type;location;lat;lon;timestamp;pressure;altitude;pressure_sealevel;temperature;humidity
69911;BME280;63555;49.920;17.868;2023-02-02T00:05:00;97977.75;;;1.49;78.59
69911;BME280;63555;49.920;17.868;2023-02-02T00:10:00;97974.59;;;1.59;78.00
69911;BME280;63555;49.920;17.868;2023-02-02T00:15:00;97976.56;;;1.72;78.13
69911;BME280;63555;49.920;17.868;2023-02-02T00:20:01;97974.25;;;1.83;78.57
69911;BME280;63555;49.920;17.868;2023-02-02T00:25:01;97966.13;;;1.89;77.85
69911;BME280;63555;49.920;17.868;2023-02-02T00:30:02;97975.44;;;1.93;78.00
69911;BME280;63555;49.920;17.868;2023-02-02T00:35:02;97981.66;;;1.90;77.84
69911;BME280;63555;49.920;17.868;2023-02-02T00:40:03;97978.28;;;1.88;78.33
69911;BME280;63555;49.920;17.868;2023-02-02T00:45:04;97986.94;;;1.89;77.90
69911;BME280;63555;49.920;17.868;2023-02-02T00:50:19;98000.69;;;1.91;78.37
69911;BME280;63555;49.920;17.868;2023-02-02T00:55:20;97995.16;;;1.97;78.01
69911;BME280;63555;49.920;17.868;2023-02-02T01:00:24;97993.06;;;2.04;77.89
69911;BME280;63555;49.920;17.868;2023-02-02T01:05:24;97985.03;;;2.08;78.42
69911;BME280;63555;49.920;17.868;2023-02-02T01:10:25;97989.91;;;2.14;77.87
69911;BME280;63555;49.920;17.868;2023-02-02T01:15:25;97992.91;;;2.22;77.74
69911;BME280;63555;49.920;17.868;2023-02-02T01:20:26;97997.78;;;2.29;77.29
69911;BME280;63555;49.920;17.868;2023-02-02T01:25:26;98001.91;;;2.33;77.89
69911;BME280;63555;49.920;17.868;2023-02-02T01:30:27;98004.50;;;2.33;77.32
69911;BME280;63555;49.920;17.868;2023-02-02T01:35:27;98006.19;;;2.34;77.17
69911;BME280;63555;49.920;17.868;2023-02-02T01:40:27;98008.88;;;2.32;77.50
69911;BME280;63555;49.920;17.868;2023-02-02T01:45:28;98018.34;;;2.33;77.43
69911;BME280;63555;49.920;17.868;2023-02-02T01:50:31;98009.72;;;2.33;77.27
69911;BME280;63555;49.920;17.868;2023-02-02T01:55:34;98011.47;;;2.32;77.08
69911;BME280;63555;49.920;17.868;2023-02-02T02:00:38;98009.72;;;2.33;77.47
69911;BME280;63555;49.920;17.868;2023-02-02T02:05:45;98015.00;;;2.31;77.13
69911;BME280;63555;49.920;17.868;2023-02-02T02:10:47;98013.41;;;2.29;77.08
69911;BME280;63555;49.920;17.868;2023-02-02T02:16:01;98021.53;;;2.22;77.23
69911;BME280;63555;49.920;17.868;2023-02-02T02:42:26;98040.00;;;1.85;76.83
69911;BME280;63555;49.920;17.868;2023-02-02T02:47:29;98046.88;;;1.69;76.79
69911;BME280;63555;49.920;17.868;2023-02-02T02:52:31;98047.75;;;1.52;76.59
69911;BME280;63555;49.920;17.868;2023-02-02T02:57:40;98052.88;;;1.36;77.03
69911;BME280;63555;49.920;17.868;2023-02-02T03:03:06;98062.56;;;1.33;78.06
69911;BME280;63555;49.920;17.868;2023-02-02T03:08:09;98058.00;;;1.38;77.53
69911;BME280;63555;49.920;17.868;2023-02-02T03:19:08;98062.34;;;1.37;77.47
69911;BME280;63555;49.920;17.868;2023-02-02T03:24:09;98068.06;;;1.44;77.39
69911;BME280;63555;49.920;17.868;2023-02-02T03:29:09;98059.59;;;1.57;76.99
69911;BME280;63555;49.920;17.868;2023-02-02T03:34:10;98055.91;;;1.62;77.03
69911;BME280;63555;49.920;17.868;2023-02-02T03:39:10;98066.84;;;1.51;76.71
69911;BME280;63555;49.920;17.868;2023-02-02T03:44:11;98063.19;;;1.38;75.96
69911;BME280;63555;49.920;17.868;2023-02-02T03:49:11;98056.00;;;1.25;75.84
69911;BME280;63555;49.920;17.868;2023-02-02T03:54:12;98047.22;;;1.11;75.92
69911;BME280;63555;49.920;17.868;2023-02-02T03:59:13;98052.09;;;1.00;75.69
69911;BME280;63555;49.920;17.868;2023-02-02T04:04:13;98057.06;;;0.85;76.26
69911;BME280;63555;49.920;17.868;2023-02-02T04:09:14;98050.72;;;0.74;76.15
69911;BME280;63555;49.920;17.868;2023-02-02T04:14:14;98046.44;;;0.73;76.55
69911;BME280;63555;49.920;17.868;2023-02-02T04:19:15;98051.13;;;0.83;76.69
69911;BME280;63555;49.920;17.868;2023-02-02T04:24:16;98049.38;;;0.84;76.53
69911;BME280;63555;49.920;17.868;2023-02-02T04:29:16;98047.81;;;0.80;75.94
69911;BME280;63555;49.920;17.868;2023-02-02T04:34:16;98048.03;;;0.75;76.25
69911;BME280;63555;49.920;17.868;2023-02-02T04:39:17;98034.38;;;0.72;76.16
69911;BME280;63555;49.920;17.868;2023-02-02T04:44:17;98041.63;;;0.65;76.46
69911;BME280;63555;49.920;17.868;2023-02-02T04:49:18;98046.44;;;0.73;76.04
69911;BME280;63555;49.920;17.868;2023-02-02T04:54:18;98043.41;;;0.82;76.54
69911;BME280;63555;49.920;17.868;2023-02-02T04:59:18;98031.91;;;0.87;75.87
69911;BME280;63555;49.920;17.868;2023-02-02T05:04:19;98034.75;;;1.00;76.23
69911;BME280;63555;49.920;17.868;2023-02-02T05:09:19;98033.47;;;1.09;75.80
69911;BME280;63555;49.920;17.868;2023-02-02T05:14:20;98037.81;;;1.25;75.83
69911;BME280;63555;49.920;17.868;2023-02-02T05:19:20;98026.59;;;1.42;75.62
69911;BME280;63555;49.920;17.868;2023-02-02T05:24:20;98036.13;;;1.59;75.50
69911;BME280;63555;49.920;17.868;2023-02-02T05:29:21;98038.84;;;1.73;75.03
69911;BME280;63555;49.920;17.868;2023-02-02T05:34:21;98040.94;;;1.84;74.42
69911;BME280;63555;49.920;17.868;2023-02-02T05:39:22;98038.53;;;1.97;74.76
69911;BME280;63555;49.920;17.868;2023-02-02T05:44:22;98046.00;;;2.03;74.51
69911;BME280;63555;49.920;17.868;2023-02-02T05:49:22;98039.72;;;2.07;74.36
69911;BME280;63555;49.920;17.868;2023-02-02T05:54:23;98037.03;;;2.08;73.82
69911;BME280;63555;49.920;17.868;2023-02-02T05:59:23;98045.69;;;2.09;73.81
69911;BME280;63555;49.920;17.868;2023-02-02T06:04:24;98041.22;;;2.11;74.21
69911;BME280;63555;49.920;17.868;2023-02-02T06:09:24;98046.19;;;2.15;73.46
69911;BME280;63555;49.920;17.868;2023-02-02T06:14:25;98052.00;;;2.20;73.71
69911;BME280;63555;49.920;17.868;2023-02-02T06:19:25;98044.78;;;2.26;73.87
69911;BME280;63555;49.920;17.868;2023-02-02T06:24:26;98047.28;;;2.27;73.76
69911;BME280;63555;49.920;17.868;2023-02-02T06:29:26;98041.25;;;2.27;73.73
69911;BME280;63555;49.920;17.868;2023-02-02T06:34:26;98045.44;;;2.29;73.51
69911;BME280;63555;49.920;17.868;2023-02-02T06:39:27;98045.28;;;2.32;73.46
69911;BME280;63555;49.920;17.868;2023-02-02T06:44:27;98042.34;;;2.38;73.15
69911;BME280;63555;49.920;17.868;2023-02-02T06:49:28;98033.47;;;2.42;73.13
69911;BME280;63555;49.920;17.868;2023-02-02T06:54:28;98046.38;;;2.44;72.77
69911;BME280;63555;49.920;17.868;2023-02-02T06:59:29;98037.66;;;2.45;72.94
69911;BME280;63555;49.920;17.868;2023-02-02T07:04:29;98055.88;;;2.45;72.80
69911;BME280;63555;49.920;17.868;2023-02-02T07:09:34;98064.44;;;2.47;72.74
69911;BME280;63555;49.920;17.868;2023-02-02T07:14:34;98070.38;;;2.49;72.93
69911;BME280;63555;49.920;17.868;2023-02-02T07:19:35;98066.88;;;2.50;73.49
69911;BME280;63555;49.920;17.868;2023-02-02T07:24:35;98082.31;;;2.53;73.20
69911;BME280;63555;49.920;17.868;2023-02-02T07:29:37;98077.78;;;2.56;72.99
69911;BME280;63555;49.920;17.868;2023-02-02T07:34:38;98071.53;;;2.61;73.28
69911;BME280;63555;49.920;17.868;2023-02-02T07:39:38;98091.91;;;2.68;73.37
69911;BME280;63555;49.920;17.868;2023-02-02T07:44:39;98092.34;;;2.76;73.20
69911;BME280;63555;49.920;17.868;2023-02-02T07:49:39;98095.88;;;2.91;72.86
69911;BME280;63555;49.920;17.868;2023-02-02T07:54:40;98090.97;;;3.01;73.00
69911;BME280;63555;49.920;17.868;2023-02-02T07:59:40;98106.69;;;2.99;72.12
69911;BME280;63555;49.920;17.868;2023-02-02T08:04:41;98099.91;;;2.97;72.79
69911;BME280;63555;49.920;17.868;2023-02-02T08:09:45;98105.94;;;2.97;72.31
69911;BME280;63555;49.920;17.868;2023-02-02T08:14:46;98112.00;;;2.98;72.57
69911;BME280;63555;49.920;17.868;2023-02-02T08:19:46;98122.16;;;3.02;72.22
69911;BME280;63555;49.920;17.868;2023-02-02T08:24:47;98120.97;;;3.08;72.38
69911;BME280;63555;49.920;17.868;2023-02-02T08:29:47;98150.88;;;3.16;72.33
69911;BME280;63555;49.920;17.868;2023-02-02T08:34:48;98134.22;;;3.19;71.79
69911;BME280;63555;49.920;17.868;2023-02-02T08:39:50;98136.66;;;3.22;72.16
69911;BME280;63555;49.920;17.868;2023-02-02T08:44:51;98139.25;;;3.38;71.57
69911;BME280;63555;49.920;17.868;2023-02-02T08:49:51;98126.34;;;3.66;71.24
69911;BME280;63555;49.920;17.868;2023-02-02T08:54:52;98131.16;;;3.88;70.73
69911;BME280;63555;49.920;17.868;2023-02-02T08:59:52;98140.69;;;4.03;70.02
69911;BME280;63555;49.920;17.868;2023-02-02T09:04:53;98154.03;;;4.13;70.08
69911;BME280;63555;49.920;17.868;2023-02-02T09:09:53;98164.56;;;4.26;69.93
69911;BME280;63555;49.920;17.868;2023-02-02T09:14:57;98169.00;;;4.39;69.81
69911;BME280;63555;49.920;17.868;2023-02-02T09:19:57;98174.31;;;4.66;69.67
69911;BME280;63555;49.920;17.868;2023-02-02T09:24:57;98185.31;;;4.86;69.10
69911;BME280;63555;49.920;17.868;2023-02-02T09:29:58;98175.59;;;5.43;69.98
69911;BME280;63555;49.920;17.868;2023-02-02T09:34:58;98176.88;;;6.80;68.52
69911;BME280;63555;49.920;17.868;2023-02-02T09:39:59;98174.63;;;7.49;65.65
69911;BME280;63555;49.920;17.868;2023-02-02T09:45:11;98182.88;;;7.31;64.78
69911;BME280;63555;49.920;17.868;2023-02-02T09:50:24;98199.13;;;7.00;65.51
69911;BME280;63555;49.920;17.868;2023-02-02T09:55:34;98204.97;;;6.91;65.31
69911;BME280;63555;49.920;17.868;2023-02-02T10:00:44;98204.25;;;6.63;65.48
69911;BME280;63555;49.920;17.868;2023-02-02T10:11:40;98203.41;;;6.25;65.49
69911;BME280;63555;49.920;17.868;2023-02-02T10:16:44;98211.38;;;6.36;65.79
69911;BME280;63555;49.920;17.868;2023-02-02T10:26:51;98212.84;;;6.53;65.82
69911;BME280;63555;49.920;17.868;2023-02-02T10:48:18;98221.75;;;6.76;63.23
69911;BME280;63555;49.920;17.868;2023-02-02T10:53:19;98237.25;;;6.66;63.60
69911;BME280;63555;49.920;17.868;2023-02-02T11:03:26;98251.31;;;6.65;64.40
69911;BME280;63555;49.920;17.868;2023-02-02T11:08:32;98255.69;;;6.52;64.45
69911;BME280;63555;49.920;17.868;2023-02-02T11:13:40;98263.44;;;6.41;64.70
69911;BME280;63555;49.920;17.868;2023-02-02T11:18:42;98264.56;;;6.24;64.43
69911;BME280;63555;49.920;17.868;2023-02-02T11:23:51;98264.44;;;6.13;63.99
69911;BME280;63555;49.920;17.868;2023-02-02T11:28:55;98263.19;;;6.18;63.75
69911;BME280;63555;49.920;17.868;2023-02-02T11:34:16;98271.81;;;6.33;63.14
69911;BME280;63555;49.920;17.868;2023-02-02T11:39:20;98263.22;;;6.44;62.33
69911;BME280;63555;49.920;17.868;2023-02-02T11:44:25;98263.75;;;6.36;61.55
69911;BME280;63555;49.920;17.868;2023-02-02T11:49:26;98272.06;;;6.68;61.87
69911;BME280;63555;49.920;17.868;2023-02-02T11:54:30;98253.88;;;8.25;60.23
69911;BME280;63555;49.920;17.868;2023-02-02T11:59:39;98265.22;;;10.06;57.22
69911;BME280;63555;49.920;17.868;2023-02-02T12:04:40;98280.53;;;10.24;55.29
69911;BME280;63555;49.920;17.868;2023-02-02T12:09:40;98283.28;;;9.12;55.47
69911;BME280;63555;49.920;17.868;2023-02-02T12:15:00;98281.66;;;7.93;56.08
69911;BME280;63555;49.920;17.868;2023-02-02T12:31:00;98299.34;;;7.16;58.36
69911;BME280;63555;49.920;17.868;2023-02-02T13:02:43;98349.31;;;6.35;58.52
69911;BME280;63555;49.920;17.868;2023-02-02T13:07:55;98349.38;;;6.21;58.40
69911;BME280;63555;49.920;17.868;2023-02-02T13:13:06;98363.06;;;5.98;58.46
69911;BME280;63555;49.920;17.868;2023-02-02T13:18:28;98364.94;;;5.82;59.38
69911;BME280;63555;49.920;17.868;2023-02-02T13:23:36;98365.25;;;5.63;59.49
69911;BME280;63555;49.920;17.868;2023-02-02T13:28:48;98364.88;;;5.40;59.80
69911;BME280;63555;49.920;17.868;2023-02-02T13:34:06;98357.31;;;5.36;60.04
69911;BME280;63555;49.920;17.868;2023-02-02T13:39:18;98359.94;;;5.36;60.02
69911;BME280;63555;49.920;17.868;2023-02-02T13:44:27;98364.22;;;5.37;60.19
69911;BME280;63555;49.920;17.868;2023-02-02T13:49:37;98387.94;;;5.34;60.28
69911;BME280;63555;49.920;17.868;2023-02-02T14:00:18;98397.69;;;5.16;59.72
69911;BME280;63555;49.920;17.868;2023-02-02T14:05:32;98402.94;;;5.16;60.11
69911;BME280;63555;49.920;17.868;2023-02-02T14:10:57;98425.03;;;5.10;60.03
69911;BME280;63555;49.920;17.868;2023-02-02T14:16:04;98433.88;;;4.94;60.46
69911;BME280;63555;49.920;17.868;2023-02-02T14:21:08;98434.84;;;4.77;60.59
69911;BME280;63555;49.920;17.868;2023-02-02T14:26:08;98442.38;;;4.67;60.92
69911;BME280;63555;49.920;17.868;2023-02-02T14:36:17;98456.72;;;4.90;61.05
69911;BME280;63555;49.920;17.868;2023-02-02T14:46:44;98483.19;;;5.14;61.39
69911;BME280;63555;49.920;17.868;2023-02-02T14:51:50;98491.47;;;5.06;60.87
69911;BME280;63555;49.920;17.868;2023-02-02T14:56:58;98495.72;;;4.93;61.52
69911;BME280;63555;49.920;17.868;2023-02-02T15:12:39;98526.44;;;4.58;62.45
69911;BME280;63555;49.920;17.868;2023-02-02T15:17:53;98517.25;;;4.51;62.47
69911;BME280;63555;49.920;17.868;2023-02-02T15:23:26;98527.91;;;4.31;62.73
69911;BME280;63555;49.920;17.868;2023-02-02T15:33:49;98548.88;;;3.63;63.53
69911;BME280;63555;49.920;17.868;2023-02-02T15:38:53;98553.31;;;3.44;63.93
69911;BME280;63555;49.920;17.868;2023-02-02T15:43:55;98563.56;;;3.30;63.84
69911;BME280;63555;49.920;17.868;2023-02-02T15:54:24;98599.16;;;2.95;64.80
69911;BME280;63555;49.920;17.868;2023-02-02T15:59:27;98610.56;;;2.92;64.98
69911;BME280;63555;49.920;17.868;2023-02-02T16:04:42;98626.03;;;2.95;65.17
69911;BME280;63555;49.920;17.868;2023-02-02T16:09:43;98628.03;;;2.90;65.44
69911;BME280;63555;49.920;17.868;2023-02-02T16:14:47;98637.19;;;2.80;66.24
69911;BME280;63555;49.920;17.868;2023-02-02T16:19:49;98660.88;;;2.74;67.49
69911;BME280;63555;49.920;17.868;2023-02-02T16:24:53;98660.59;;;2.61;68.24
69911;BME280;63555;49.920;17.868;2023-02-02T16:30:06;98678.44;;;2.50;69.64
69911;BME280;63555;49.920;17.868;2023-02-02T16:35:31;98698.75;;;2.42;70.39
69911;BME280;63555;49.920;17.868;2023-02-02T16:40:32;98711.69;;;2.23;69.85
69911;BME280;63555;49.920;17.868;2023-02-02T16:45:37;98707.78;;;1.92;70.16
69911;BME280;63555;49.920;17.868;2023-02-02T16:50:47;98724.38;;;1.68;70.96
69911;BME280;63555;49.920;17.868;2023-02-02T16:56:04;98738.38;;;1.64;71.84
69911;BME280;63555;49.920;17.868;2023-02-02T17:01:09;98752.16;;;1.66;71.67
69911;BME280;63555;49.920;17.868;2023-02-02T17:06:13;98769.28;;;1.72;71.83
69911;BME280;63555;49.920;17.868;2023-02-02T17:11:26;98773.53;;;1.74;71.89
69911;BME280;63555;49.920;17.868;2023-02-02T17:16:29;98789.56;;;1.85;71.70
69911;BME280;63555;49.920;17.868;2023-02-02T17:21:29;98781.31;;;1.96;71.77
69911;BME280;63555;49.920;17.868;2023-02-02T17:26:33;98804.47;;;2.02;71.44
69911;BME280;63555;49.920;17.868;2023-02-02T17:31:33;98813.13;;;2.03;71.92
69911;BME280;63555;49.920;17.868;2023-02-02T17:36:37;98824.13;;;2.09;71.43
69911;BME280;63555;49.920;17.868;2023-02-02T17:41:38;98830.97;;;2.12;71.47
69911;BME280;63555;49.920;17.868;2023-02-02T17:46:38;98850.84;;;2.13;71.86
69911;BME280;63555;49.920;17.868;2023-02-02T17:51:39;98882.91;;;2.13;71.68
69911;BME280;63555;49.920;17.868;2023-02-02T17:56:44;98901.31;;;2.09;71.92
69911;BME280;63555;49.920;17.868;2023-02-02T18:01:46;98906.97;;;1.97;72.69
69911;BME280;63555;49.920;17.868;2023-02-02T18:06:46;98917.97;;;1.81;72.61
69911;BME280;63555;49.920;17.868;2023-02-02T18:12:08;98936.75;;;1.65;73.42
69911;BME280;63555;49.920;17.868;2023-02-02T18:17:09;98934.84;;;1.70;73.58
69911;BME280;63555;49.920;17.868;2023-02-02T18:22:10;98946.25;;;1.66;72.87
69911;BME280;63555;49.920;17.868;2023-02-02T18:27:12;98952.81;;;1.52;72.68
69911;BME280;63555;49.920;17.868;2023-02-02T18:32:14;98964.91;;;1.53;72.93
69911;BME280;63555;49.920;17.868;2023-02-02T18:37:14;98980.09;;;1.64;72.41
69911;BME280;63555;49.920;17.868;2023-02-02T18:42:15;98987.56;;;1.73;72.42
69911;BME280;63555;49.920;17.868;2023-02-02T18:47:15;99006.47;;;1.78;72.04
69911;BME280;63555;49.920;17.868;2023-02-02T18:52:15;99012.56;;;1.77;72.32
69911;BME280;63555;49.920;17.868;2023-02-02T18:57:18;99020.00;;;1.63;72.73
69911;BME280;63555;49.920;17.868;2023-02-02T19:02:18;99017.19;;;1.44;73.11
69911;BME280;63555;49.920;17.868;2023-02-02T19:07:19;99043.59;;;1.32;73.30
69911;BME280;63555;49.920;17.868;2023-02-02T19:12:38;99066.47;;;1.21;73.12
69911;BME280;63555;49.920;17.868;2023-02-02T19:17:39;99070.19;;;1.14;73.47
69911;BME280;63555;49.920;17.868;2023-02-02T19:22:40;99077.47;;;1.03;73.38
69911;BME280;63555;49.920;17.868;2023-02-02T19:27:41;99081.22;;;0.94;73.77
69911;BME280;63555;49.920;17.868;2023-02-02T19:32:42;99090.88;;;0.89;73.89
69911;BME280;63555;49.920;17.868;2023-02-02T19:37:43;99102.22;;;0.85;73.67
69911;BME280;63555;49.920;17.868;2023-02-02T19:42:56;99108.75;;;0.70;73.83
69911;BME280;63555;49.920;17.868;2023-02-02T19:48:01;99120.19;;;0.63;74.39
69911;BME280;63555;49.920;17.868;2023-02-02T19:53:34;99135.91;;;0.58;73.91
69911;BME280;63555;49.920;17.868;2023-02-02T19:58:37;99155.50;;;0.39;74.06
69911;BME280;63555;49.920;17.868;2023-02-02T20:03:40;99164.03;;;0.12;73.64
69911;BME280;63555;49.920;17.868;2023-02-02T20:08:42;99154.38;;;-0.16;74.20
69911;BME280;63555;49.920;17.868;2023-02-02T20:13:45;99182.41;;;-0.32;74.96
69911;BME280;63555;49.920;17.868;2023-02-02T20:18:50;99184.44;;;-0.43;74.88
69911;BME280;63555;49.920;17.868;2023-02-02T20:23:54;99196.91;;;-0.58;74.73
69911;BME280;63555;49.920;17.868;2023-02-02T20:29:00;99209.06;;;-0.62;74.85
69911;BME280;63555;49.920;17.868;2023-02-02T20:34:19;99226.16;;;-0.55;74.85
69911;BME280;63555;49.920;17.868;2023-02-02T20:44:23;99233.72;;;-0.46;74.18
69911;BME280;63555;49.920;17.868;2023-02-02T20:49:25;99238.16;;;-0.51;73.95
69911;BME280;63555;49.920;17.868;2023-02-02T20:54:28;99239.22;;;-0.59;73.82
69911;BME280;63555;49.920;17.868;2023-02-02T20:59:29;99237.69;;;-0.68;73.80
69911;BME280;63555;49.920;17.868;2023-02-02T21:04:30;99255.06;;;-0.73;73.99
69911;BME280;63555;49.920;17.868;2023-02-02T21:09:31;99268.78;;;-0.68;73.52
69911;BME280;63555;49.920;17.868;2023-02-02T21:14:31;99271.66;;;-0.43;73.71
69911;BME280;63555;49.920;17.868;2023-02-02T21:19:31;99271.88;;;-0.17;73.30
69911;BME280;63555;49.920;17.868;2023-02-02T21:24:32;99282.63;;;0.05;73.22
69911;BME280;63555;49.920;17.868;2023-02-02T21:29:32;99285.72;;;0.19;72.89
69911;BME280;63555;49.920;17.868;2023-02-02T21:34:33;99281.19;;;0.27;72.28
69911;BME280;63555;49.920;17.868;2023-02-02T21:39:36;99284.47;;;0.34;72.40
69911;BME280;63555;49.920;17.868;2023-02-02T21:44:42;99293.09;;;0.35;72.01
69911;BME280;63555;49.920;17.868;2023-02-02T21:49:43;99306.84;;;0.38;71.36
69911;BME280;63555;49.920;17.868;2023-02-02T21:54:44;99289.41;;;0.43;71.24
69911;BME280;63555;49.920;17.868;2023-02-02T21:59:45;99298.81;;;0.47;70.74
69911;BME280;63555;49.920;17.868;2023-02-02T22:04:48;99296.31;;;0.44;70.92
69911;BME280;63555;49.920;17.868;2023-02-02T22:09:49;99304.13;;;0.43;70.59
69911;BME280;63555;49.920;17.868;2023-02-02T22:14:56;99299.06;;;0.38;70.80
69911;BME280;63555;49.920;17.868;2023-02-02T22:30:39;99303.47;;;0.35;70.43
69911;BME280;63555;49.920;17.868;2023-02-02T22:35:41;99308.66;;;0.35;70.49
69911;BME280;63555;49.920;17.868;2023-02-02T22:40:41;99319.19;;;0.28;70.22
69911;BME280;63555;49.920;17.868;2023-02-02T22:45:43;99324.56;;;0.21;69.86
69911;BME280;63555;49.920;17.868;2023-02-02T22:50:43;99332.47;;;0.16;70.30
69911;BME280;63555;49.920;17.868;2023-02-02T22:55:44;99339.34;;;0.17;70.26
69911;BME280;63555;49.920;17.868;2023-02-02T23:00:44;99341.06;;;0.18;70.01
69911;BME280;63555;49.920;17.868;2023-02-02T23:05:45;99342.78;;;0.18;70.12
69911;BME280;63555;49.920;17.868;2023-02-02T23:10:46;99341.25;;;0.11;69.89
69911;BME280;63555;49.920;17.868;2023-02-02T23:15:46;99360.44;;;0.04;70.15
69911;BME280;63555;49.920;17.868;2023-02-02T23:20:47;99363.97;;;-0.02;70.25
69911;BME280;63555;49.920;17.868;2023-02-02T23:25:48;99371.94;;;-0.10;70.33
69911;BME280;63555;49.920;17.868;2023-02-02T23:30:48;99372.16;;;-0.19;70.69
69911;BME280;63555;49.920;17.868;2023-02-02T23:35:50;99368.88;;;-0.27;70.97
69911;BME280;63555;49.920;17.868;2023-02-02T23:40:50;99372.31;;;-0.26;71.18
69911;BME280;63555;49.920;17.868;2023-02-02T23:45:51;99380.94;;;-0.26;71.28
69911;BME280;63555;49.920;17.868;2023-02-02T23:50:51;99381.72;;;-0.22;71.21
69911;BME280;63555;49.920;17.868;2023-02-02T23:55:52;99387.94;;;-0.29;71.31
